Time;durP1;ratioP1;P1;durP2;ratioP2;P2;SDS_P1;SDS_P2;PMS_P1;PMS_P2;Temp;Humidity;BMP_temperature;BMP_pressure;BME280_temperature;BME280_humidity;BME280_pressure;Samples;Min_cycle;Max_cycle;Signal;HPM_P1;HPM_P2
2022/02/17 00:02:21;;;;;;;3.53;1.70;;;12.20;1.00;;;;;;5095589;28;20198;-80
2022/02/17 00:04:50;;;;;;;3.03;1.58;;;12.30;1.00;;;;;;5095296;28;20205;-79
2022/02/17 00:07:17;;;;;;;6.40;1.05;;;12.30;1.00;;;;;;5095621;28;20201;-80
2022/02/17 00:09:44;;;;;;;5.00;0.95;;;12.30;1.00;;;;;;5093783;28;20266;-80
2022/02/17 00:12:11;;;;;;;4.88;0.93;;;12.40;1.00;;;;;;5094398;28;20209;-81
2022/02/17 00:14:38;;;;;;;4.97;3.17;;;12.40;1.00;;;;;;5094996;28;20198;-80
2022/02/17 00:17:05;;;;;;;2.97;1.10;;;12.40;1.00;;;;;;5093383;28;20669;-81
2022/02/17 00:19:32;;;;;;;5.28;1.08;;;12.40;1.00;;;;;;5092521;28;20629;-80
2022/02/17 00:22:01;;;;;;;4.70;1.48;;;12.40;1.00;;;;;;5093073;28;20229;-78
2022/02/17 00:24:28;;;;;;;1.50;0.75;;;12.40;1.00;;;;;;5092942;28;20208;-81
2022/02/17 00:26:55;;;;;;;3.95;1.45;;;12.50;1.00;;;;;;5092994;28;20259;-82
2022/02/17 00:29:21;;;;;;;7.22;2.08;;;12.50;1.00;;;;;;5092697;28;20249;-81
2022/02/17 00:31:48;;;;;;;5.10;1.48;;;12.50;1.00;;;;;;5092456;28;20507;-81
2022/02/17 00:34:15;;;;;;;3.33;1.00;;;12.50;1.00;;;;;;5092092;28;20673;-78
2022/02/17 00:36:42;;;;;;;4.95;1.25;;;12.50;1.00;;;;;;5092059;28;20201;-78
2022/02/17 00:39:11;;;;;;;2.63;1.13;;;12.60;1.00;;;;;;5092658;28;20224;-83
2022/02/17 00:41:38;;;;;;;4.22;1.20;;;12.50;1.00;;;;;;5091903;28;20769;-80
2022/02/17 00:44:05;;;;;;;9.32;1.70;;;12.50;1.00;;;;;;5092748;28;20266;-81
2022/02/17 00:46:32;;;;;;;6.45;1.20;;;12.50;1.00;;;;;;5090641;28;20656;-81
2022/02/17 00:48:59;;;;;;;2.28;0.93;;;12.50;1.00;;;;;;5092307;28;20674;-81
2022/02/17 00:51:27;;;;;;;5.47;0.90;;;12.50;1.00;;;;;;5092718;28;20201;-83
2022/02/17 00:53:54;;;;;;;4.63;1.55;;;12.50;1.00;;;;;;5092228;28;20673;-82
2022/02/17 00:56:22;;;;;;;5.97;1.30;;;12.50;1.00;;;;;;5092537;28;20205;-81
2022/02/17 00:58:49;;;;;;;7.35;1.40;;;12.50;1.00;;;;;;5091996;28;20209;-83
2022/02/17 01:01:16;;;;;;;7.18;1.30;;;12.50;1.00;;;;;;5091948;28;20232;-83
2022/02/17 01:03:43;;;;;;;4.35;1.40;;;12.50;1.00;;;;;;5091677;28;20263;-82
2022/02/17 01:06:10;;;;;;;4.00;1.33;;;12.50;1.00;;;;;;5092083;28;20217;-77
2022/02/17 01:08:37;;;;;;;3.42;1.33;;;12.50;1.00;;;;;;5091981;28;20206;-82
2022/02/17 01:11:04;;;;;;;3.10;1.13;;;12.50;1.00;;;;;;5092203;28;20198;-83
2022/02/17 01:13:32;;;;;;;2.75;1.10;;;12.50;1.00;;;;;;5091890;28;20672;-82
2022/02/17 01:15:59;;;;;;;6.10;2.55;;;12.40;1.00;;;;;;5091597;28;20251;-82
2022/02/17 01:18:26;;;;;;;3.80;1.60;;;12.50;1.00;;;;;;5092456;28;20206;-82
2022/02/17 01:20:53;;;;;;;6.72;2.13;;;12.50;1.00;;;;;;5091434;28;20724;-82
2022/02/17 01:23:20;;;;;;;6.35;1.55;;;12.50;1.00;;;;;;5092068;28;20213;-79
2022/02/17 01:25:47;;;;;;;6.38;1.55;;;12.50;1.00;;;;;;5091725;28;20197;-82
2022/02/17 01:28:14;;;;;;;7.60;2.20;;;12.50;1.00;;;;;;5091687;28;20254;-78
2022/02/17 01:30:43;;;;;;;5.38;1.38;;;12.50;1.00;;;;;;5090951;28;20588;-78
2022/02/17 01:33:10;;;;;;;4.53;1.23;;;12.50;1.00;;;;;;5091448;28;20597;-79
2022/02/17 01:35:37;;;;;;;5.93;1.83;;;12.50;1.00;;;;;;5091163;28;20622;-80
2022/02/17 01:38:04;;;;;;;7.05;2.08;;;12.50;1.00;;;;;;5091483;28;20202;-78
2022/02/17 01:40:32;;;;;;;6.43;1.88;;;12.50;1.00;;;;;;5090754;28;20327;-79
2022/02/17 01:42:59;;;;;;;7.93;3.33;;;12.40;1.00;;;;;;5091308;28;20665;-78
2022/02/17 01:45:26;;;;;;;4.57;1.60;;;12.40;1.00;;;;;;5091172;28;20201;-79
2022/02/17 01:47:55;;;;;;;10.32;1.88;;;12.40;1.00;;;;;;5091128;28;20205;-78
2022/02/17 01:50:22;;;;;;;5.75;1.25;;;12.50;1.00;;;;;;5091238;28;20277;-78
2022/02/17 01:52:49;;;;;;;5.05;1.52;;;12.50;1.00;;;;;;5090959;28;20217;-83
2022/02/17 01:55:16;;;;;;;4.97;2.20;;;12.50;1.00;;;;;;5091703;28;20209;-82
2022/02/17 01:57:43;;;;;;;7.25;2.65;;;12.50;1.00;;;;;;5091034;28;20274;-81
2022/02/17 02:00:12;;;;;;;7.15;2.55;;;12.50;1.00;;;;;;5091673;28;20259;-83
2022/02/17 02:02:39;;;;;;;7.00;2.03;;;12.50;1.00;;;;;;5091109;28;20294;-82
2022/02/17 02:05:08;;;;;;;6.95;2.22;;;12.50;1.00;;;;;;5091472;28;20202;-82
2022/02/17 02:07:35;;;;;;;7.50;2.80;;;12.40;1.00;;;;;;5091250;28;20612;-82
2022/02/17 02:10:02;;;;;;;14.23;3.17;;;12.40;1.00;;;;;;5091651;28;20255;-84
2022/02/17 02:12:29;;;;;;;10.50;2.15;;;12.30;1.00;;;;;;5090771;28;20205;-81
2022/02/17 02:14:58;;;;;;;6.10;2.05;;;12.30;1.00;;;;;;5091554;28;20672;-82
2022/02/17 02:17:28;;;;;;;12.10;2.58;;;12.40;1.00;;;;;;5091330;28;20300;-81
2022/02/17 02:19:57;;;;;;;10.55;3.13;;;12.40;1.00;;;;;;5072801;28;20306;-81
2022/02/17 02:22:27;;;;;;;6.43;2.03;;;12.40;1.00;;;;;;5070908;28;20229;-81
2022/02/17 02:24:58;;;;;;;5.45;2.35;;;12.40;1.00;;;;;;5071073;28;20206;-81
2022/02/17 02:27:26;;;;;;;9.50;3.85;;;12.40;1.00;;;;;;5071107;28;20677;-80
2022/02/17 02:29:53;;;;;;;6.22;1.85;;;12.30;1.00;;;;;;5070423;28;20198;-82
2022/02/17 02:32:20;;;;;;;6.05;2.45;;;12.30;1.00;;;;;;5071010;28;20206;-81
2022/02/17 02:34:47;;;;;;;9.32;2.25;;;12.20;1.00;;;;;;5070638;28;20665;-82
2022/02/17 02:37:14;;;;;;;5.72;2.53;;;12.10;1.00;;;;;;5071703;28;20263;-75
2022/02/17 02:39:42;;;;;;;5.68;2.00;;;12.10;1.00;;;;;;5072779;28;20236;-80
2022/02/17 02:42:09;;;;;;;11.18;2.92;;;12.00;1.00;;;;;;5071766;28;20644;-80
2022/02/17 02:44:37;;;;;;;10.13;3.08;;;12.00;1.00;;;;;;5070397;28;20247;-80
2022/02/17 02:47:04;;;;;;;8.48;2.22;;;11.90;1.00;;;;;;5070782;28;20206;-81
2022/02/17 02:49:32;;;;;;;8.77;2.28;;;11.90;1.00;;;;;;5070249;28;20206;-80
2022/02/17 02:51:59;;;;;;;4.97;1.95;;;11.90;1.00;;;;;;5070551;28;20210;-77
2022/02/17 02:54:26;;;;;;;10.05;2.75;;;11.90;27.60;;;;;;5070855;28;20207;-81
2022/02/17 02:56:54;;;;;;;8.10;2.33;;;11.90;27.40;;;;;;5070190;28;20206;-78
2022/02/17 02:59:21;;;;;;;13.67;3.00;;;11.80;35.50;;;;;;5070139;28;20252;-79
2022/02/17 03:01:48;;;;;;;6.07;2.33;;;11.80;36.90;;;;;;5070010;28;20259;-82
2022/02/17 03:04:15;;;;;;;9.80;3.42;;;11.80;91.30;;;;;;5070242;28;20198;-81
2022/02/17 03:06:42;;;;;;;5.63;1.95;;;11.70;99.90;;;;;;5070373;28;20210;-80
2022/02/17 03:09:09;;;;;;;10.13;3.65;;;11.70;99.90;;;;;;5071599;28;20734;-79
2022/02/17 03:11:36;;;;;;;5.22;1.80;;;11.70;99.90;;;;;;5073268;28;20704;-77
2022/02/17 03:14:04;;;;;;;6.32;2.50;;;11.70;99.90;;;;;;5074016;28;20198;-78
2022/02/17 03:16:31;;;;;;;7.32;2.63;;;11.80;99.90;;;;;;5073283;28;20662;-78
2022/02/17 03:18:59;;;;;;;6.28;1.58;;;11.80;99.90;;;;;;5074066;28;20233;-78
2022/02/17 03:21:26;;;;;;;9.10;2.80;;;11.80;99.90;;;;;;5073805;28;20343;-77
2022/02/17 03:23:53;;;;;;;8.10;2.00;;;11.80;99.90;;;;;;5073185;28;20625;-77
2022/02/17 03:26:20;;;;;;;14.52;3.38;;;11.80;99.90;;;;;;5073209;28;20614;-78
2022/02/17 03:28:47;;;;;;;7.22;2.72;;;11.80;96.50;;;;;;5073107;28;20202;-78
2022/02/17 03:31:15;;;;;;;11.30;2.47;;;11.80;72.00;;;;;;5073637;28;20202;-77
2022/02/17 03:33:42;;;;;;;9.95;2.15;;;11.80;68.90;;;;;;5073027;28;20252;-81
2022/02/17 03:36:09;;;;;;;14.32;2.75;;;11.80;40.00;;;;;;5073913;28;20206;-81
2022/02/17 03:38:36;;;;;;;7.53;2.38;;;11.80;26.40;;;;;;5073534;28;20255;-81
2022/02/17 03:41:04;;;;;;;4.20;2.38;;;11.90;14.20;;;;;;5072974;28;20243;-81
2022/02/17 03:43:31;;;;;;;13.85;2.70;;;11.90;1.00;;;;;;5072990;28;20699;-81
2022/02/17 03:45:57;;;;;;;10.85;3.00;;;11.80;35.50;;;;;;5073675;28;20198;-81
2022/02/17 03:48:26;;;;;;;7.90;2.27;;;11.80;99.90;;;;;;5073460;28;20202;-81
2022/02/17 03:50:53;;;;;;;9.77;2.22;;;11.80;99.90;;;;;;5073585;28;20214;-81
2022/02/17 03:53:20;;;;;;;11.43;5.50;;;11.80;90.60;;;;;;5073374;28;20618;-84
2022/02/17 03:55:47;;;;;;;14.60;2.83;;;11.80;99.90;;;;;;5073172;28;20256;-83
2022/02/17 03:59:00;;;;;;;9.82;2.80;;;11.80;74.70;;;;;;5073512;28;20629;-82
2022/02/17 04:01:02;;;;;;;10.15;3.13;;;11.80;64.70;;;;;;5072879;28;20564;-83
2022/02/17 04:03:30;;;;;;;7.37;2.57;;;11.80;39.10;;;;;;5072646;28;20293;-72
2022/02/17 04:05:57;;;;;;;11.13;2.25;;;11.80;19.90;;;;;;5073334;28;20569;-76
2022/02/17 04:08:24;;;;;;;8.57;2.33;;;11.80;72.30;;;;;;5073088;28;20279;-76
2022/02/17 04:10:52;;;;;;;16.85;4.35;;;11.80;99.90;;;;;;5075500;28;20202;-75
2022/02/17 04:13:19;;;;;;;8.93;2.80;;;11.70;99.90;;;;;;5090005;28;20217;-77
2022/02/17 04:15:46;;;;;;;10.52;3.22;;;11.60;99.90;;;;;;5108278;28;20205;-76
2022/02/17 04:18:12;;;;;;;9.63;3.10;;;11.60;1.00;;;;;;5105244;28;20209;-76
2022/02/17 04:20:41;;;;;;;9.15;3.17;;;11.60;1.00;;;;;;5112422;28;20209;-76
2022/02/17 04:23:08;;;;;;;4.80;2.20;;;11.60;1.00;;;;;;5112686;28;20650;-75
2022/02/17 04:25:35;;;;;;;7.55;2.58;;;11.60;1.00;;;;;;5112030;28;20216;-76
2022/02/17 04:28:02;;;;;;;14.73;3.90;;;11.60;1.00;;;;;;5112658;28;20197;-75
2022/02/17 04:30:29;;;;;;;10.20;2.80;;;11.60;1.00;;;;;;5110014;28;20205;-75
2022/02/17 04:32:56;;;;;;;11.10;3.20;;;11.60;1.00;;;;;;5112746;28;20201;-76
2022/02/17 04:35:24;;;;;;;11.73;2.83;;;11.60;1.00;;;;;;5112775;28;20209;-76
2022/02/17 04:37:53;;;;;;;11.40;2.63;;;11.60;1.00;;;;;;5112237;28;20205;-74
2022/02/17 04:40:20;;;;;;;11.82;2.45;;;11.60;1.00;;;;;;5112046;28;20733;-77
2022/02/17 04:43:06;;;;;;;18.07;2.53;;;11.60;1.00;;;;;;5112267;28;20304;-76
2022/02/17 04:45:33;;;;;;;8.70;2.20;;;11.50;1.00;;;;;;5112009;28;20244;-77
2022/02/17 04:48:03;;;;;;;10.05;2.88;;;11.50;1.00;;;;;;5112281;28;20205;-77
2022/02/17 04:50:30;;;;;;;7.25;2.85;;;11.50;1.00;;;;;;5111982;28;20208;-79
2022/02/17 04:52:58;;;;;;;10.77;2.45;;;11.60;99.90;;;;;;5112110;28;20270;-75
2022/02/17 04:55:26;;;;;;;8.43;2.47;;;11.60;99.90;;;;;;5112690;28;20332;-78
2022/02/17 04:57:53;;;;;;;8.50;2.30;;;11.60;99.90;;;;;;5111774;28;20209;-77
2022/02/17 05:00:20;;;;;;;6.60;2.47;;;11.60;99.90;;;;;;5112101;28;20208;-79
2022/02/17 05:02:47;;;;;;;6.73;2.60;;;11.60;99.90;;;;;;5110818;28;20281;-79
2022/02/17 05:05:14;;;;;;;7.00;3.10;;;11.70;55.20;;;;;;5110635;28;20258;-78
2022/02/17 05:07:41;;;;;;;9.73;2.57;;;11.70;26.10;;;;;;5109010;28;20258;-82
2022/02/17 05:10:10;;;;;;;7.43;2.28;;;11.80;1.00;;;;;;5112243;28;20207;-74
2022/02/17 05:12:37;;;;;;;5.35;1.90;;;11.80;1.00;;;;;;5097755;28;20201;-80
2022/02/17 05:15:04;;;;;;;7.00;2.37;;;11.80;1.00;;;;;;5112127;27;20618;-81
2022/02/17 05:17:31;;;;;;;6.50;1.95;;;11.80;1.00;;;;;;5111739;28;20208;-81
2022/02/17 05:19:58;;;;;;;6.18;2.15;;;11.80;1.00;;;;;;5112317;28;20732;-82
2022/02/17 05:22:25;;;;;;;10.55;3.13;;;11.90;1.00;;;;;;5112105;28;20281;-80
2022/02/17 05:24:53;;;;;;;7.90;1.80;;;11.90;1.00;;;;;;5111385;28;20250;-80
2022/02/17 05:27:21;;;;;;;10.90;2.35;;;11.90;1.00;;;;;;5111913;28;20201;-78
2022/02/17 05:29:48;;;;;;;7.90;2.03;;;11.90;1.00;;;;;;5111328;28;20205;-81
2022/02/17 05:32:15;;;;;;;8.63;2.28;;;12.00;1.00;;;;;;5111149;28;20208;-78
2022/02/17 05:34:42;;;;;;;3.70;1.98;;;12.00;1.00;;;;;;5111563;28;20277;-75
2022/02/17 05:37:09;;;;;;;6.47;1.67;;;12.00;1.00;;;;;;5111748;28;20201;-81
2022/02/17 05:39:36;;;;;;;10.50;3.33;;;12.00;1.00;;;;;;5111470;28;20638;-81
2022/02/17 05:42:03;;;;;;;3.80;2.15;;;12.00;1.00;;;;;;5111946;28;20293;-81
2022/02/17 05:44:32;;;;;;;5.78;2.58;;;12.00;1.00;;;;;;5111417;28;20250;-80
2022/02/17 05:46:59;;;;;;;4.25;2.00;;;12.00;1.00;;;;;;5111623;28;20710;-76
2022/02/17 05:49:26;;;;;;;6.20;2.83;;;12.00;1.00;;;;;;5112125;28;20201;-80
2022/02/17 05:51:53;;;;;;;6.88;2.13;;;12.00;1.00;;;;;;5111132;28;20226;-79
2022/02/17 05:54:20;;;;;;;9.57;1.88;;;12.10;1.00;;;;;;5111149;28;20235;-80
2022/02/17 05:56:47;;;;;;;4.20;1.85;;;12.10;1.00;;;;;;5111293;28;20287;-83
2022/02/17 05:59:14;;;;;;;3.63;1.42;;;12.00;1.00;;;;;;5111858;28;20205;-81
2022/02/17 06:01:43;;;;;;;10.52;3.78;;;12.10;1.00;;;;;;5111076;28;20201;-82
2022/02/17 06:04:10;;;;;;;6.47;1.70;;;12.10;1.00;;;;;;5112236;28;20234;-78
2022/02/17 06:06:37;;;;;;;2.20;1.40;;;12.00;1.00;;;;;;5111787;28;20246;-77
2022/02/17 06:09:04;;;;;;;2.90;1.57;;;12.00;1.00;;;;;;5111968;28;20212;-78
2022/02/17 06:11:31;;;;;;;4.63;1.20;;;12.00;1.00;;;;;;5112142;28;20205;-78
2022/02/17 06:13:58;;;;;;;5.07;1.48;;;12.00;1.00;;;;;;5112120;28;20201;-78
2022/02/17 06:16:25;;;;;;;6.33;1.47;;;12.00;1.00;;;;;;5111388;28;20205;-78
2022/02/17 06:18:54;;;;;;;4.75;1.30;;;12.10;1.00;;;;;;5111286;28;20205;-78
2022/02/17 06:21:21;;;;;;;4.10;1.13;;;12.00;1.00;;;;;;5111337;28;20254;-80
2022/02/17 06:23:48;;;;;;;6.03;1.17;;;12.00;1.00;;;;;;5111812;28;20253;-78
2022/02/17 06:26:15;;;;;;;2.95;1.35;;;12.10;1.00;;;;;;5112998;28;20201;-77
2022/02/17 06:28:42;;;;;;;6.57;1.58;;;12.00;1.00;;;;;;5112739;28;20247;-77
2022/02/17 06:31:09;;;;;;;4.72;1.30;;;12.00;1.00;;;;;;5114356;28;20278;-78
2022/02/17 06:33:36;;;;;;;3.42;0.90;;;12.00;1.00;;;;;;5113033;28;20277;-79
2022/02/17 06:36:05;;;;;;;4.63;1.00;;;12.00;1.00;;;;;;5111301;28;20270;-78
2022/02/17 06:38:32;;;;;;;2.55;1.00;;;12.00;1.00;;;;;;5111739;28;20257;-79
2022/02/17 06:40:59;;;;;;;10.07;2.83;;;12.10;1.00;;;;;;5112162;28;20208;-77
2022/02/17 06:43:27;;;;;;;4.18;1.33;;;12.10;1.00;;;;;;5114100;28;20240;-79
2022/02/17 06:45:54;;;;;;;4.60;1.63;;;12.10;1.00;;;;;;5117648;28;20205;-79
2022/02/17 06:48:21;;;;;;;3.17;0.63;;;12.10;1.00;;;;;;5118227;28;20203;-78
2022/02/17 06:50:48;;;;;;;4.90;1.40;;;12.10;1.00;;;;;;5115762;28;20738;-79
2022/02/17 06:53:16;;;;;;;3.80;0.98;;;12.10;1.00;;;;;;5115722;28;20213;-80
2022/02/17 06:55:44;;;;;;;3.70;1.38;;;12.10;1.00;;;;;;5115328;28;20201;-81
2022/02/17 06:58:11;;;;;;;6.85;1.60;;;12.10;1.00;;;;;;5115852;28;20205;-78
2022/02/17 07:00:38;;;;;;;3.80;1.10;;;12.10;1.00;;;;;;5114976;28;20205;-79
2022/02/17 07:03:06;;;;;;;1.97;0.97;;;12.10;1.00;;;;;;5108363;27;20286;-77
2022/02/17 07:05:34;;;;;;;1.52;0.85;;;12.10;1.00;;;;;;5098842;28;20324;-80
2022/02/17 07:08:01;;;;;;;3.40;0.68;;;12.10;1.00;;;;;;5093710;28;20224;-73
2022/02/17 07:13:14;;;;;;;3.10;0.88;;;12.00;1.00;;;;;;5092407;28;20230;-75
2022/02/17 07:15:43;;;;;;;4.22;0.93;;;12.10;1.00;;;;;;5092400;28;20205;-73
2022/02/17 07:18:11;;;;;;;1.45;0.82;;;12.10;1.00;;;;;;5091897;28;20206;-74
2022/02/17 07:20:39;;;;;;;6.22;1.10;;;12.10;1.00;;;;;;5083016;28;20705;-76
2022/02/17 07:23:06;;;;;;;4.13;0.88;;;12.10;1.00;;;;;;5091305;28;20233;-73
2022/02/17 07:25:34;;;;;;;1.67;0.90;;;12.20;1.00;;;;;;5093458;28;20624;-75
2022/02/17 07:28:02;;;;;;;2.08;1.00;;;12.20;1.00;;;;;;5093699;28;20279;-75
2022/02/17 07:30:29;;;;;;;6.15;1.75;;;12.10;1.00;;;;;;5093572;28;20731;-72
2022/02/17 07:32:56;;;;;;;4.20;1.10;;;12.20;1.00;;;;;;5092974;28;20734;-76
2022/02/17 07:35:23;;;;;;;3.70;0.80;;;12.20;1.00;;;;;;5093574;28;20251;-77
2022/02/17 07:37:50;;;;;;;4.70;0.90;;;12.20;1.00;;;;;;5093519;28;20271;-74
2022/02/17 07:40:17;;;;;;;1.58;0.80;;;12.30;1.00;;;;;;5092953;28;20201;-77
2022/02/17 07:42:46;;;;;;;2.28;0.88;;;12.30;1.00;;;;;;5092726;28;20233;-76
2022/02/17 07:45:14;;;;;;;3.55;0.98;;;12.30;1.00;;;;;;5092413;28;20259;-77
2022/02/17 07:47:45;;;;;;;4.22;1.25;;;12.30;1.00;;;;;;5092685;28;20202;-76
2022/02/17 07:50:12;;;;;;;10.05;2.92;;;12.40;1.00;;;;;;5093014;28;20205;-75
2022/02/17 07:52:39;;;;;;;6.57;1.52;;;12.40;1.00;;;;;;5092958;28;20221;-77
2022/02/17 07:55:07;;;;;;;4.80;1.50;;;12.50;1.00;;;;;;5092556;28;20201;-76
2022/02/17 07:57:34;;;;;;;2.35;1.50;;;12.60;1.00;;;;;;5088176;28;20209;-75
2022/02/17 08:00:04;;;;;;;3.05;0.82;;;12.70;1.00;;;;;;5083813;28;20205;-76
2022/02/17 08:02:31;;;;;;;6.47;1.38;;;12.70;1.00;;;;;;5084548;28;20206;-74
2022/02/17 08:04:59;;;;;;;3.30;0.90;;;12.70;1.00;;;;;;5077257;28;20214;-77
2022/02/17 08:07:27;;;;;;;3.72;1.73;;;12.80;1.00;;;;;;5085241;28;20289;-75
2022/02/17 08:09:55;;;;;;;3.70;2.17;;;12.90;1.00;;;;;;5097488;28;20580;-75
2022/02/17 08:12:22;;;;;;;1.13;0.88;;;13.00;1.00;;;;;;5104695;28;20201;-75
2022/02/17 08:14:49;;;;;;;2.88;0.95;;;13.00;1.00;;;;;;5109712;28;20648;-76
2022/02/17 08:17:17;;;;;;;5.63;1.40;;;13.10;1.00;;;;;;5112751;28;20270;-76
2022/02/17 08:19:44;;;;;;;8.88;2.90;;;13.00;1.00;;;;;;5103177;28;20205;-75
2022/02/17 08:22:12;;;;;;;3.60;1.10;;;13.00;1.00;;;;;;5101209;28;20201;-74
2022/02/17 08:24:38;;;;;;;8.13;1.30;;;13.00;1.00;;;;;;5096978;28;20807;-74
2022/02/17 08:27:06;;;;;;;2.63;1.33;;;13.00;1.00;;;;;;5097633;28;20657;-73
2022/02/17 08:29:33;;;;;;;3.17;1.02;;;12.90;1.00;;;;;;5099198;28;20220;-76
2022/02/17 08:32:00;;;;;;;5.25;1.13;;;12.90;1.00;;;;;;5096559;28;20309;-74
2022/02/17 08:34:28;;;;;;;6.00;2.35;;;13.00;1.00;;;;;;5104241;28;20216;-76
2022/02/17 08:36:55;;;;;;;3.42;2.30;;;13.00;1.00;;;;;;5110648;27;20740;-73
2022/02/17 08:39:22;;;;;;;1.67;1.08;;;13.10;1.00;;;;;;5112441;28;20635;-77
2022/02/17 08:41:49;;;;;;;6.72;1.13;;;13.10;1.00;;;;;;5095136;28;20266;-74
2022/02/17 08:44:16;;;;;;;5.63;1.20;;;13.00;1.00;;;;;;5092374;28;20237;-76
2022/02/17 08:46:43;;;;;;;4.47;1.35;;;13.10;1.00;;;;;;5090579;28;20673;-76
2022/02/17 08:49:10;;;;;;;3.55;1.20;;;13.10;1.00;;;;;;5099060;28;20197;-77
2022/02/17 08:51:39;;;;;;;2.60;1.52;;;13.10;1.00;;;;;;5092841;28;20206;-77
2022/02/17 08:54:06;;;;;;;8.98;1.38;;;13.10;1.00;;;;;;5110635;28;20635;-76
2022/02/17 08:56:34;;;;;;;5.85;1.55;;;13.20;1.00;;;;;;5104761;28;20205;-76
2022/02/17 08:59:01;;;;;;;7.72;1.10;;;13.20;1.00;;;;;;5111913;28;20667;-77
2022/02/17 09:01:28;;;;;;;4.93;1.70;;;13.30;1.00;;;;;;5102158;28;20210;-78
2022/02/17 09:03:56;;;;;;;4.90;1.15;;;13.30;1.00;;;;;;5103016;28;20236;-76
2022/02/17 09:06:23;;;;;;;6.07;1.63;;;13.30;1.00;;;;;;5093278;28;20201;-76
2022/02/17 09:08:51;;;;;;;5.60;2.08;;;13.40;1.00;;;;;;5103514;28;20239;-78
2022/02/17 09:11:18;;;;;;;6.57;1.42;;;13.40;1.00;;;;;;5095604;28;20202;-74
2022/02/17 09:13:46;;;;;;;4.30;1.33;;;13.40;1.00;;;;;;5100371;28;20681;-77
2022/02/17 09:16:13;;;;;;;1.42;1.00;;;13.30;1.00;;;;;;5105990;28;20566;-78
2022/02/17 09:18:40;;;;;;;2.33;0.90;;;13.40;1.00;;;;;;5109695;28;20228;-77
2022/02/17 09:21:07;;;;;;;7.18;1.42;;;13.40;1.00;;;;;;5106688;28;20259;-75
2022/02/17 09:23:35;;;;;;;2.40;1.00;;;13.40;1.00;;;;;;5099591;28;20221;-78
2022/02/17 09:26:06;;;;;;;3.53;1.33;;;13.50;1.00;;;;;;5111340;28;20239;-77
2022/02/17 09:28:33;;;;;;;3.20;1.20;;;13.50;1.00;;;;;;5094576;28;20209;-75
2022/02/17 09:31:00;;;;;;;5.13;1.92;;;13.50;1.00;;;;;;5101674;28;20254;-74
2022/02/17 09:33:27;;;;;;;7.50;2.95;;;13.40;1.00;;;;;;5099124;28;20700;-75
2022/02/17 09:35:55;;;;;;;5.95;1.20;;;13.50;1.00;;;;;;5111078;28;20207;-77
2022/02/17 09:38:22;;;;;;;6.25;1.45;;;13.60;1.00;;;;;;5111485;28;20208;-77
2022/02/17 09:40:49;;;;;;;2.92;1.35;;;13.70;1.00;;;;;;5110662;28;20690;-77
2022/02/17 09:43:18;;;;;;;3.00;1.48;;;13.70;1.00;;;;;;5111019;28;20583;-76
2022/02/17 09:45:47;;;;;;;2.85;1.25;;;13.60;1.00;;;;;;5110154;27;20205;-76
2022/02/17 09:48:17;;;;;;;1.90;0.98;;;13.70;1.00;;;;;;5110746;28;20209;-76
2022/02/17 09:50:44;;;;;;;2.80;0.90;;;13.60;1.00;;;;;;5108119;28;20678;-73
2022/02/17 09:53:13;;;;;;;5.47;1.05;;;13.70;1.00;;;;;;5100725;28;20564;-74
2022/02/17 09:55:42;;;;;;;5.35;1.15;;;13.80;1.00;;;;;;5110764;28;20249;-76
2022/02/17 09:58:09;;;;;;;3.47;1.20;;;13.90;1.00;;;;;;5084444;28;20233;-76
2022/02/17 10:00:38;;;;;;;2.35;1.20;;;14.10;1.00;;;;;;5087390;28;20210;-76
2022/02/17 10:03:26;;;;;;;8.40;1.45;;;14.30;1.00;;;;;;5103514;28;20261;-77
2022/02/17 10:06:14;;;;;;;2.70;0.90;;;14.30;1.00;;;;;;5107022;28;20284;-76
2022/02/17 10:08:42;;;;;;;5.50;1.23;;;14.40;1.00;;;;;;5087654;28;20250;-77
2022/02/17 10:11:26;;;;;;;5.20;2.63;;;14.60;1.00;;;;;;5094048;28;20290;-71
2022/02/17 10:14:00;;;;;;;9.30;2.05;;;14.70;1.00;;;;;;5094696;28;20254;-71
2022/02/17 10:16:28;;;;;;;2.80;1.38;;;14.70;1.00;;;;;;5108557;28;20212;-76
2022/02/17 10:19:08;;;;;;;3.65;1.70;;;14.70;1.00;;;;;;5109320;28;20627;-70
2022/02/17 10:21:35;;;;;;;4.55;1.40;;;14.50;1.00;;;;;;5108677;28;20208;-77
2022/02/17 10:24:02;;;;;;;7.72;1.77;;;14.50;1.00;;;;;;5107463;28;20605;-77
2022/02/17 10:26:30;;;;;;;4.72;1.63;;;14.70;1.00;;;;;;5107501;28;20193;-73
2022/02/17 10:28:59;;;;;;;7.25;2.65;;;14.80;1.00;;;;;;5095086;28;20201;-76
2022/02/17 10:31:29;;;;;;;5.43;1.10;;;14.80;1.00;;;;;;5094015;28;20225;-75
2022/02/17 10:33:58;;;;;;;2.72;1.20;;;14.80;1.00;;;;;;5093007;28;20209;-76
2022/02/17 10:36:34;;;;;;;7.13;1.17;;;14.90;1.00;;;;;;5093053;28;20250;-77
2022/02/17 10:39:09;;;;;;;3.20;1.35;;;14.90;1.00;;;;;;5094090;28;20193;-79
2022/02/17 10:41:50;;;;;;;5.75;1.63;;;15.10;1.00;;;;;;5093987;28;20208;-77
2022/02/17 10:44:18;;;;;;;3.28;1.70;;;15.00;1.00;;;;;;5099115;28;20224;-76
2022/02/17 10:46:47;;;;;;;3.10;1.85;;;15.10;1.00;;;;;;5114652;28;20252;-78
2022/02/17 10:49:15;;;;;;;4.60;1.10;;;15.30;1.00;;;;;;5115286;28;20253;-78
2022/02/17 10:51:43;;;;;;;4.88;1.20;;;15.40;1.00;;;;;;5112713;28;20246;-73
2022/02/17 10:54:10;;;;;;;2.72;1.00;;;15.60;1.00;;;;;;5093325;28;20436;-77
2022/02/17 10:56:40;;;;;;;2.30;1.13;;;15.50;1.00;;;;;;5093299;28;20266;-73
2022/02/17 11:00:00;;;;;;;6.10;1.65;;;15.50;1.00;;;;;;5094332;28;20213;-78
2022/02/17 11:01:58;;;;;;;2.90;0.95;;;15.40;1.00;;;;;;5094044;28;20212;-78
2022/02/17 11:04:27;;;;;;;2.28;1.00;;;15.20;1.00;;;;;;5098246;28;20225;-75
2022/02/17 11:06:54;;;;;;;3.58;1.35;;;15.10;1.00;;;;;;5095479;28;20575;-78
2022/02/17 11:09:21;;;;;;;1.92;0.95;;;15.00;1.00;;;;;;5079532;28;20206;-77
2022/02/17 11:11:51;;;;;;;2.78;0.70;;;14.90;1.00;;;;;;5093553;28;20201;-75
2022/02/17 11:14:36;;;;;;;3.83;1.25;;;14.90;1.00;;;;;;5094117;28;20201;-77
2022/02/17 11:17:06;;;;;;;3.08;0.70;;;15.00;1.00;;;;;;5094068;28;20197;-78
2022/02/17 11:19:33;;;;;;;4.68;0.90;;;15.00;1.00;;;;;;5097161;28;20208;-78
2022/02/17 11:22:01;;;;;;;1.58;0.85;;;15.10;1.00;;;;;;5095291;28;20198;-76
2022/02/17 11:24:28;;;;;;;4.75;1.08;;;15.10;1.00;;;;;;5104518;28;20707;-79
2022/02/17 11:27:03;;;;;;;1.63;1.15;;;15.20;1.00;;;;;;5094393;28;20237;-76
2022/02/17 11:29:32;;;;;;;2.05;0.80;;;15.40;1.00;;;;;;5102057;28;20287;-74
2022/02/17 11:32:02;;;;;;;5.30;1.65;;;15.40;1.00;;;;;;5108033;28;20205;-71
2022/02/17 11:34:43;;;;;;;5.38;1.38;;;15.10;1.00;;;;;;5114271;28;20691;-72
2022/02/17 11:37:44;;;;;;;1.02;0.65;;;15.20;1.00;;;;;;5114244;28;20197;-78
2022/02/17 11:40:16;;;;;;;2.25;0.90;;;15.60;1.00;;;;;;5053770;28;20607;-76
2022/02/17 11:42:45;;;;;;;2.45;1.25;;;15.80;1.00;;;;;;5054335;28;20300;-79
2022/02/17 11:45:15;;;;;;;4.50;1.08;;;16.30;1.00;;;;;;5071972;28;20233;-75
2022/02/17 11:48:02;;;;;;;1.98;0.95;;;16.70;1.00;;;;;;5086230;28;20217;-73
2022/02/17 11:50:39;;;;;;;3.08;0.90;;;16.70;1.00;;;;;;5090280;28;20205;-70
2022/02/17 11:53:29;;;;;;;5.32;1.67;;;16.40;1.00;;;;;;5097334;28;20700;-80
2022/02/17 11:56:30;;;;;;;2.80;0.98;;;16.20;1.00;;;;;;5098036;28;20213;-75
2022/02/17 11:58:57;;;;;;;1.63;0.95;;;16.20;1.00;;;;;;5101659;28;20257;-77
2022/02/17 12:01:40;;;;;;;3.60;0.70;;;16.40;1.00;;;;;;5096406;28;20210;-79
2022/02/17 12:04:15;;;;;;;4.00;1.10;;;16.50;1.00;;;;;;5079527;28;20279;-77
2022/02/17 12:06:45;;;;;;;9.00;1.85;;;16.40;1.00;;;;;;5101479;27;20576;-78
2022/02/17 12:09:41;;;;;;;1.35;0.60;;;16.20;1.00;;;;;;5098578;28;20292;-79
2022/02/17 12:12:39;;;;;;;0.70;0.68;;;16.30;1.00;;;;;;5098862;27;20700;-76
2022/02/17 12:15:12;;;;;;;3.28;0.65;;;16.10;1.00;;;;;;5091495;28;20718;-73
2022/02/17 12:17:40;;;;;;;1.98;1.15;;;16.00;1.00;;;;;;5110325;27;20212;-79
2022/02/17 12:20:10;;;;;;;2.97;0.85;;;15.80;1.00;;;;;;5095588;28;20239;-77
2022/02/17 12:22:49;;;;;;;2.60;1.38;;;15.80;1.00;;;;;;5102205;28;20299;-77
2022/02/17 12:25:22;;;;;;;2.10;0.80;;;15.80;1.00;;;;;;5097168;28;20243;-78
2022/02/17 12:27:51;;;;;;;3.00;0.68;;;15.80;1.00;;;;;;5091932;28;20270;-77
2022/02/17 12:30:33;;;;;;;1.65;0.60;;;16.00;1.00;;;;;;5082865;28;20214;-73
2022/02/17 12:33:05;;;;;;;2.15;1.02;;;16.30;1.00;;;;;;5083873;28;20202;-78
2022/02/17 12:35:32;;;;;;;3.30;0.60;;;16.40;1.00;;;;;;5090739;28;20205;-79
2022/02/17 12:38:09;;;;;;;1.30;0.70;;;16.50;1.00;;;;;;5086114;28;20201;-73
2022/02/17 12:40:37;;;;;;;5.68;1.50;;;16.60;1.00;;;;;;5106525;28;20676;-81
2022/02/17 12:43:04;;;;;;;2.05;0.98;;;17.20;1.00;;;;;;5112396;28;20279;-80
2022/02/17 12:45:40;;;;;;;1.63;0.50;;;17.20;1.00;;;;;;5104224;28;20233;-77
2022/02/17 12:48:08;;;;;;;0.93;0.88;;;17.30;1.00;;;;;;5081549;28;20201;-79
2022/02/17 12:50:36;;;;;;;2.75;0.75;;;17.20;1.00;;;;;;5093440;28;20297;-76
2022/02/17 12:53:07;;;;;;;1.33;0.85;;;17.00;1.00;;;;;;5091574;28;20221;-79
2022/02/17 12:55:46;;;;;;;1.30;0.95;;;17.30;1.00;;;;;;5091662;28;20730;-79
2022/02/17 12:58:14;;;;;;;3.13;0.80;;;17.40;1.00;;;;;;5094214;28;20209;-73
2022/02/17 13:00:43;;;;;;;2.58;1.50;;;17.70;1.00;;;;;;5088449;28;20584;-74
2022/02/17 13:03:11;;;;;;;1.00;0.60;;;17.80;1.00;;;;;;5099535;28;20284;-76
2022/02/17 13:08:38;;;;;;;1.33;0.80;;;17.50;1.00;;;;;;5086617;28;20230;-79
2022/02/17 13:11:05;;;;;;;0.88;0.60;;;17.30;1.00;;;;;;5092959;28;20274;-72